sensor_id;sensor_type;location;lat;lon;timestamp;pressure;altitude;pressure_sealevel;temperature;humidity
23176;BME280;19910;42.652;23.332;2023-05-29T00:00:01;94398.53;;;12.82;99.60
23176;BME280;19910;42.652;23.332;2023-05-29T00:02:31;94416.34;;;12.80;99.71
23176;BME280;19910;42.652;23.332;2023-05-29T00:04:57;94413.28;;;12.81;99.90
23176;BME280;19910;42.652;23.332;2023-05-29T00:07:25;94410.09;;;12.79;99.88
23176;BME280;19910;42.652;23.332;2023-05-29T00:09:53;94408.53;;;12.78;99.23
23176;BME280;19910;42.652;23.332;2023-05-29T00:12:19;94407.16;;;12.85;99.12
23176;BME280;19910;42.652;23.332;2023-05-29T00:14:47;94411.88;;;12.88;99.11
23176;BME280;19910;42.652;23.332;2023-05-29T00:17:14;94406.53;;;12.91;98.66
23176;BME280;19910;42.652;23.332;2023-05-29T00:19:42;94412.41;;;12.93;98.54
23176;BME280;19910;42.652;23.332;2023-05-29T00:22:09;94421.16;;;12.87;99.10
23176;BME280;19910;42.652;23.332;2023-05-29T00:24:37;94418.25;;;12.79;99.42
23176;BME280;19910;42.652;23.332;2023-05-29T00:27:04;94413.28;;;12.81;99.38
23176;BME280;19910;42.652;23.332;2023-05-29T00:29:31;94418.78;;;12.85;99.32
23176;BME280;19910;42.652;23.332;2023-05-29T00:31:58;94417.13;;;12.80;99.57
23176;BME280;19910;42.652;23.332;2023-05-29T00:34:24;94413.84;;;12.75;99.64
23176;BME280;19910;42.652;23.332;2023-05-29T00:36:51;94406.59;;;12.79;99.64
23176;BME280;19910;42.652;23.332;2023-05-29T00:39:20;94417.03;;;12.77;99.96
23176;BME280;19910;42.652;23.332;2023-05-29T00:41:48;94419.63;;;12.73;99.91
23176;BME280;19910;42.652;23.332;2023-05-29T00:44:16;94410.69;;;12.73;100.00
23176;BME280;19910;42.652;23.332;2023-05-29T00:46:43;94417.63;;;12.70;100.00
23176;BME280;19910;42.652;23.332;2023-05-29T00:49:10;94408.34;;;12.59;100.00
23176;BME280;19910;42.652;23.332;2023-05-29T00:51:38;94410.78;;;12.49;100.00
23176;BME280;19910;42.652;23.332;2023-05-29T00:54:06;94403.75;;;12.48;100.00
23176;BME280;19910;42.652;23.332;2023-05-29T00:56:34;94403.66;;;12.44;100.00
23176;BME280;19910;42.652;23.332;2023-05-29T00:59:04;94405.94;;;12.42;100.00
23176;BME280;19910;42.652;23.332;2023-05-29T01:01:32;94402.09;;;12.43;100.00
23176;BME280;19910;42.652;23.332;2023-05-29T01:03:59;94399.81;;;12.45;100.00
23176;BME280;19910;42.652;23.332;2023-05-29T01:06:27;94394.63;;;12.40;100.00
23176;BME280;19910;42.652;23.332;2023-05-29T01:08:54;94394.22;;;12.26;100.00
23176;BME280;19910;42.652;23.332;2023-05-29T01:11:27;94395.72;;;12.11;100.00
23176;BME280;19910;42.652;23.332;2023-05-29T01:14:00;94399.44;;;12.06;100.00
23176;BME280;19910;42.652;23.332;2023-05-29T01:16:37;94393.75;;;12.24;100.00
23176;BME280;19910;42.652;23.332;2023-05-29T01:19:13;94396.72;;;12.19;100.00
23176;BME280;19910;42.652;23.332;2023-05-29T01:21:50;94405.00;;;12.10;100.00
23176;BME280;19910;42.652;23.332;2023-05-29T01:24:26;94402.16;;;12.06;100.00
23176;BME280;19910;42.652;23.332;2023-05-29T01:27:02;94410.44;;;12.10;100.00
23176;BME280;19910;42.652;23.332;2023-05-29T01:29:32;94409.63;;;12.09;100.00
23176;BME280;19910;42.652;23.332;2023-05-29T01:32:00;94399.56;;;12.10;100.00
23176;BME280;19910;42.652;23.332;2023-05-29T01:34:28;94402.06;;;12.15;100.00
23176;BME280;19910;42.652;23.332;2023-05-29T01:36:55;94400.03;;;12.00;100.00
23176;BME280;19910;42.652;23.332;2023-05-29T01:39:23;94398.47;;;11.99;100.00
23176;BME280;19910;42.652;23.332;2023-05-29T01:41:50;94402.50;;;12.05;100.00
23176;BME280;19910;42.652;23.332;2023-05-29T01:44:19;94404.00;;;12.02;100.00
23176;BME280;19910;42.652;23.332;2023-05-29T01:46:47;94400.13;;;12.03;100.00
23176;BME280;19910;42.652;23.332;2023-05-29T01:49:16;94402.63;;;11.96;100.00
23176;BME280;19910;42.652;23.332;2023-05-29T01:51:44;94398.81;;;11.97;100.00
23176;BME280;19910;42.652;23.332;2023-05-29T01:54:11;94402.88;;;11.91;100.00
23176;BME280;19910;42.652;23.332;2023-05-29T01:56:38;94404.38;;;11.89;100.00
23176;BME280;19910;42.652;23.332;2023-05-29T01:59:05;94401.66;;;11.89;100.00
23176;BME280;19910;42.652;23.332;2023-05-29T02:01:34;94390.78;;;12.01;100.00
23176;BME280;19910;42.652;23.332;2023-05-29T02:04:00;94398.56;;;12.02;100.00
23176;BME280;19910;42.652;23.332;2023-05-29T02:06:27;94391.66;;;12.05;100.00
23176;BME280;19910;42.652;23.332;2023-05-29T02:08:54;94399.94;;;11.96;100.00
23176;BME280;19910;42.652;23.332;2023-05-29T02:11:21;94395.97;;;11.94;100.00
23176;BME280;19910;42.652;23.332;2023-05-29T02:13:47;94403.91;;;11.87;100.00
23176;BME280;19910;42.652;23.332;2023-05-29T02:16:14;94398.94;;;11.89;100.00
23176;BME280;19910;42.652;23.332;2023-05-29T02:18:43;94394.03;;;11.94;100.00
23176;BME280;19910;42.652;23.332;2023-05-29T02:21:10;94388.59;;;12.06;100.00
23176;BME280;19910;42.652;23.332;2023-05-29T02:23:37;94385.66;;;12.12;100.00
23176;BME280;19910;42.652;23.332;2023-05-29T02:26:04;94387.91;;;12.09;100.00
23176;BME280;19910;42.652;23.332;2023-05-29T02:28:31;94392.44;;;12.05;100.00
23176;BME280;19910;42.652;23.332;2023-05-29T02:30:58;94398.56;;;12.02;100.00
23176;BME280;19910;42.652;23.332;2023-05-29T02:33:25;94398.66;;;12.06;100.00
23176;BME280;19910;42.652;23.332;2023-05-29T02:35:53;94391.97;;;12.16;100.00
23176;BME280;19910;42.652;23.332;2023-05-29T02:38:20;94397.63;;;12.10;100.00
23176;BME280;19910;42.652;23.332;2023-05-29T02:40:46;94402.50;;;12.05;100.00
23176;BME280;19910;42.652;23.332;2023-05-29T02:43:13;94396.28;;;12.04;100.00
23176;BME280;19910;42.652;23.332;2023-05-29T02:45:40;94399.44;;;12.06;100.00
23176;BME280;19910;42.652;23.332;2023-05-29T02:48:07;94399.13;;;12.08;100.00
23176;BME280;19910;42.652;23.332;2023-05-29T02:50:34;94395.59;;;12.07;100.00
23176;BME280;19910;42.652;23.332;2023-05-29T02:53:02;94399.69;;;12.14;100.00
23176;BME280;19910;42.652;23.332;2023-05-29T02:55:29;94402.72;;;12.12;100.00
23176;BME280;19910;42.652;23.332;2023-05-29T02:57:57;94393.47;;;12.13;100.00
23176;BME280;19910;42.652;23.332;2023-05-29T03:00:25;94401.69;;;12.17;100.00
23176;BME280;19910;42.652;23.332;2023-05-29T03:02:54;94393.97;;;12.31;100.00
23176;BME280;19910;42.652;23.332;2023-05-29T03:05:21;94401.03;;;12.48;100.00
23176;BME280;19910;42.652;23.332;2023-05-29T03:07:47;94404.28;;;12.65;100.00
23176;BME280;19910;42.652;23.332;2023-05-29T03:10:16;94407.38;;;12.79;100.00
23176;BME280;19910;42.652;23.332;2023-05-29T03:12:44;94393.28;;;12.90;100.00
23176;BME280;19910;42.652;23.332;2023-05-29T03:15:10;94407.03;;;13.09;100.00
23176;BME280;19910;42.652;23.332;2023-05-29T03:17:37;94403.56;;;13.12;100.00
23176;BME280;19910;42.652;23.332;2023-05-29T03:20:05;94393.66;;;13.04;100.00
23176;BME280;19910;42.652;23.332;2023-05-29T03:22:33;94401.91;;;13.07;100.00
23176;BME280;19910;42.652;23.332;2023-05-29T03:25:01;94395.25;;;13.05;100.00
23176;BME280;19910;42.652;23.332;2023-05-29T03:27:29;94401.25;;;13.26;100.00
23176;BME280;19910;42.652;23.332;2023-05-29T03:29:56;94399.34;;;13.42;100.00
23176;BME280;19910;42.652;23.332;2023-05-29T03:32:24;94402.94;;;13.46;100.00
23176;BME280;19910;42.652;23.332;2023-05-29T03:34:51;94398.84;;;13.52;100.00
23176;BME280;19910;42.652;23.332;2023-05-29T03:37:18;94393.00;;;13.70;100.00
23176;BME280;19910;42.652;23.332;2023-05-29T03:39:45;94405.91;;;13.88;99.57
23176;BME280;19910;42.652;23.332;2023-05-29T03:42:12;94414.78;;;13.85;99.31
23176;BME280;19910;42.652;23.332;2023-05-29T03:44:40;94419.34;;;13.81;99.26
23176;BME280;19910;42.652;23.332;2023-05-29T03:47:07;94412.75;;;13.98;98.71
23176;BME280;19910;42.652;23.332;2023-05-29T03:49:34;94419.50;;;14.04;100.00
23176;BME280;19910;42.652;23.332;2023-05-29T03:52:01;94422.44;;;14.31;98.50
23176;BME280;19910;42.652;23.332;2023-05-29T03:54:28;94428.38;;;14.52;96.98
23176;BME280;19910;42.652;23.332;2023-05-29T03:56:55;94421.28;;;14.67;97.54
23176;BME280;19910;42.652;23.332;2023-05-29T03:59:21;94421.75;;;15.11;96.61
23176;BME280;19910;42.652;23.332;2023-05-29T04:01:50;94422.47;;;15.27;95.31
23176;BME280;19910;42.652;23.332;2023-05-29T04:04:16;94434.41;;;14.80;94.68
23176;BME280;19910;42.652;23.332;2023-05-29T04:06:43;94431.53;;;14.92;95.00
23176;BME280;19910;42.652;23.332;2023-05-29T04:09:10;94425.91;;;15.24;94.58
23176;BME280;19910;42.652;23.332;2023-05-29T04:11:37;94429.72;;;15.61;93.25
23176;BME280;19910;42.652;23.332;2023-05-29T04:14:04;94428.00;;;16.52;90.63
23176;BME280;19910;42.652;23.332;2023-05-29T04:16:31;94431.41;;;17.72;85.20
23176;BME280;19910;42.652;23.332;2023-05-29T04:18:59;94415.38;;;18.91;80.29
23176;BME280;19910;42.652;23.332;2023-05-29T04:21:26;94417.41;;;19.04;77.85
23176;BME280;19910;42.652;23.332;2023-05-29T04:23:52;94423.97;;;18.82;76.57
23176;BME280;19910;42.652;23.332;2023-05-29T04:26:21;94425.78;;;18.02;78.11
23176;BME280;19910;42.652;23.332;2023-05-29T04:28:50;94432.59;;;17.74;79.72
23176;BME280;19910;42.652;23.332;2023-05-29T04:31:18;94431.94;;;16.54;84.74
23176;BME280;19910;42.652;23.332;2023-05-29T04:33:48;94437.38;;;16.51;86.32
23176;BME280;19910;42.652;23.332;2023-05-29T04:36:16;94439.69;;;16.49;87.37
23176;BME280;19910;42.652;23.332;2023-05-29T04:38:43;94435.31;;;16.70;87.27
23176;BME280;19910;42.652;23.332;2023-05-29T04:41:10;94440.06;;;16.74;86.51
23176;BME280;19910;42.652;23.332;2023-05-29T04:43:37;94446.41;;;16.55;87.07
23176;BME280;19910;42.652;23.332;2023-05-29T04:46:05;94440.66;;;16.90;86.20
23176;BME280;19910;42.652;23.332;2023-05-29T04:48:33;94435.41;;;17.45;86.38
23176;BME280;19910;42.652;23.332;2023-05-29T04:50:59;94429.53;;;19.00;81.04
23176;BME280;19910;42.652;23.332;2023-05-29T04:53:27;94424.31;;;19.67;73.97
23176;BME280;19910;42.652;23.332;2023-05-29T04:55:55;94431.75;;;19.70;71.55
23176;BME280;19910;42.652;23.332;2023-05-29T04:58:24;94435.66;;;19.62;73.01
23176;BME280;19910;42.652;23.332;2023-05-29T05:00:50;94446.84;;;19.07;72.39
23176;BME280;19910;42.652;23.332;2023-05-29T05:03:17;94448.25;;;18.76;73.76
23176;BME280;19910;42.652;23.332;2023-05-29T05:05:44;94447.75;;;19.47;73.83
23176;BME280;19910;42.652;23.332;2023-05-29T05:08:11;94448.47;;;19.23;73.73
23176;BME280;19910;42.652;23.332;2023-05-29T05:10:39;94453.75;;;19.84;71.37
23176;BME280;19910;42.652;23.332;2023-05-29T05:13:06;94454.22;;;20.36;67.84
23176;BME280;19910;42.652;23.332;2023-05-29T05:15:33;94459.16;;;21.12;65.41
23176;BME280;19910;42.652;23.332;2023-05-29T05:18:00;94453.34;;;20.89;65.20
23176;BME280;19910;42.652;23.332;2023-05-29T05:20:27;94469.91;;;20.61;66.11
23176;BME280;19910;42.652;23.332;2023-05-29T05:22:53;94461.84;;;22.58;61.97
23176;BME280;19910;42.652;23.332;2023-05-29T05:25:21;94454.38;;;23.00;59.65
23176;BME280;19910;42.652;23.332;2023-05-29T05:27:49;94445.19;;;24.55;56.32
23176;BME280;19910;42.652;23.332;2023-05-29T05:30:16;94447.31;;;25.34;53.14
23176;BME280;19910;42.652;23.332;2023-05-29T05:32:43;94450.88;;;23.30;56.54
23176;BME280;19910;42.652;23.332;2023-05-29T05:35:10;94450.28;;;22.70;57.79
23176;BME280;19910;42.652;23.332;2023-05-29T05:37:37;94466.41;;;21.72;61.86
23176;BME280;19910;42.652;23.332;2023-05-29T05:40:04;94460.47;;;20.72;64.61
23176;BME280;19910;42.652;23.332;2023-05-29T05:42:32;94462.84;;;20.52;66.26
23176;BME280;19910;42.652;23.332;2023-05-29T05:45:00;94465.59;;;20.38;66.87
23176;BME280;19910;42.652;23.332;2023-05-29T05:47:28;94462.84;;;20.45;65.44
23176;BME280;19910;42.652;23.332;2023-05-29T05:49:55;94459.47;;;19.23;70.44
23176;BME280;19910;42.652;23.332;2023-05-29T05:52:22;94476.13;;;18.27;73.92
23176;BME280;19910;42.652;23.332;2023-05-29T05:54:48;94480.75;;;18.16;75.76
23176;BME280;19910;42.652;23.332;2023-05-29T05:57:15;94471.69;;;19.36;70.85
23176;BME280;19910;42.652;23.332;2023-05-29T05:59:42;94468.34;;;20.52;67.64
23176;BME280;19910;42.652;23.332;2023-05-29T06:02:10;94463.88;;;22.03;63.23
23176;BME280;19910;42.652;23.332;2023-05-29T06:04:37;94463.50;;;22.52;62.07
23176;BME280;19910;42.652;23.332;2023-05-29T06:07:04;94466.16;;;21.42;62.91
23176;BME280;19910;42.652;23.332;2023-05-29T06:09:31;94464.38;;;20.75;64.87
23176;BME280;19910;42.652;23.332;2023-05-29T06:11:58;94474.63;;;20.35;66.51
23176;BME280;19910;42.652;23.332;2023-05-29T06:14:25;94472.81;;;19.31;69.82
23176;BME280;19910;42.652;23.332;2023-05-29T06:16:52;94469.72;;;19.40;69.55
23176;BME280;19910;42.652;23.332;2023-05-29T06:19:21;94465.06;;;21.07;65.85
23176;BME280;19910;42.652;23.332;2023-05-29T06:21:48;94461.78;;;21.48;63.64
23176;BME280;19910;42.652;23.332;2023-05-29T06:24:15;94475.44;;;20.46;67.50
23176;BME280;19910;42.652;23.332;2023-05-29T06:26:41;94487.97;;;20.69;67.07
23176;BME280;19910;42.652;23.332;2023-05-29T06:29:08;94471.94;;;21.72;62.77
23176;BME280;19910;42.652;23.332;2023-05-29T06:31:35;94484.72;;;21.31;63.55
23176;BME280;19910;42.652;23.332;2023-05-29T06:34:02;94480.47;;;21.99;62.17
23176;BME280;19910;42.652;23.332;2023-05-29T06:36:30;94481.03;;;22.80;58.98
23176;BME280;19910;42.652;23.332;2023-05-29T06:38:57;94470.13;;;23.71;57.46
23176;BME280;19910;42.652;23.332;2023-05-29T06:41:24;94467.78;;;24.27;55.08
23176;BME280;19910;42.652;23.332;2023-05-29T06:43:51;94468.00;;;23.52;56.95
23176;BME280;19910;42.652;23.332;2023-05-29T06:46:18;94476.41;;;22.14;60.01
23176;BME280;19910;42.652;23.332;2023-05-29T06:48:45;94473.66;;;21.38;62.44
23176;BME280;19910;42.652;23.332;2023-05-29T06:51:12;94476.94;;;20.83;64.62
23176;BME280;19910;42.652;23.332;2023-05-29T06:53:40;94476.09;;;22.02;60.96
23176;BME280;19910;42.652;23.332;2023-05-29T06:56:07;94467.63;;;23.16;58.10
23176;BME280;19910;42.652;23.332;2023-05-29T06:58:34;94467.41;;;23.37;57.25
23176;BME280;19910;42.652;23.332;2023-05-29T07:01:01;94465.47;;;23.30;58.34
23176;BME280;19910;42.652;23.332;2023-05-29T07:03:28;94472.91;;;23.03;56.99
23176;BME280;19910;42.652;23.332;2023-05-29T07:05:55;94484.03;;;21.89;60.13
23176;BME280;19910;42.652;23.332;2023-05-29T07:08:22;94476.75;;;21.50;61.31
23176;BME280;19910;42.652;23.332;2023-05-29T07:10:51;94482.97;;;21.72;61.50
23176;BME280;19910;42.652;23.332;2023-05-29T07:13:18;94480.91;;;20.07;65.19
23176;BME280;19910;42.652;23.332;2023-05-29T07:15:45;94485.66;;;20.42;65.55
23176;BME280;19910;42.652;23.332;2023-05-29T07:18:11;94490.34;;;20.77;65.50
23176;BME280;19910;42.652;23.332;2023-05-29T07:20:38;94489.97;;;20.43;65.82
23176;BME280;19910;42.652;23.332;2023-05-29T07:23:05;94485.34;;;21.70;62.23
23176;BME280;19910;42.652;23.332;2023-05-29T07:25:32;94472.59;;;22.94;59.17
23176;BME280;19910;42.652;23.332;2023-05-29T07:28:00;94465.28;;;22.77;57.55
23176;BME280;19910;42.652;23.332;2023-05-29T07:30:27;94477.09;;;22.29;59.44
23176;BME280;19910;42.652;23.332;2023-05-29T07:32:53;94478.56;;;20.55;64.32
23176;BME280;19910;42.652;23.332;2023-05-29T07:35:20;94482.50;;;20.54;65.32
23176;BME280;19910;42.652;23.332;2023-05-29T07:37:47;94479.09;;;21.59;63.78
23176;BME280;19910;42.652;23.332;2023-05-29T07:40:15;94468.25;;;22.52;58.93
23176;BME280;19910;42.652;23.332;2023-05-29T07:42:41;94473.88;;;23.23;57.80
23176;BME280;19910;42.652;23.332;2023-05-29T07:45:10;94484.13;;;22.37;58.94
23176;BME280;19910;42.652;23.332;2023-05-29T07:47:37;94477.63;;;22.61;59.41
23176;BME280;19910;42.652;23.332;2023-05-29T07:50:05;94480.53;;;21.81;60.43
23176;BME280;19910;42.652;23.332;2023-05-29T07:52:31;94481.66;;;20.86;63.44
23176;BME280;19910;42.652;23.332;2023-05-29T07:54:58;94482.78;;;21.20;63.63
23176;BME280;19910;42.652;23.332;2023-05-29T07:57:27;94476.50;;;21.96;60.53
23176;BME280;19910;42.652;23.332;2023-05-29T07:59:54;94466.13;;;22.22;59.93
23176;BME280;19910;42.652;23.332;2023-05-29T08:02:22;94476.41;;;22.14;60.25
23176;BME280;19910;42.652;23.332;2023-05-29T08:04:49;94479.22;;;21.31;61.99
23176;BME280;19910;42.652;23.332;2023-05-29T08:07:15;94472.25;;;20.73;63.63
23176;BME280;19910;42.652;23.332;2023-05-29T08:09:42;94477.25;;;21.17;63.90
23176;BME280;19910;42.652;23.332;2023-05-29T08:12:09;94483.16;;;21.15;64.38
23176;BME280;19910;42.652;23.332;2023-05-29T08:14:36;94486.44;;;20.57;66.53
23176;BME280;19910;42.652;23.332;2023-05-29T08:17:03;94484.81;;;20.03;67.97
23176;BME280;19910;42.652;23.332;2023-05-29T08:19:31;94491.13;;;20.21;66.61
23176;BME280;19910;42.652;23.332;2023-05-29T08:21:58;94485.97;;;19.98;66.67
23176;BME280;19910;42.652;23.332;2023-05-29T08:24:25;94487.94;;;20.93;64.15
23176;BME280;19910;42.652;23.332;2023-05-29T08:26:53;94486.03;;;20.73;64.23
23176;BME280;19910;42.652;23.332;2023-05-29T08:29:20;94490.13;;;21.59;62.59
23176;BME280;19910;42.652;23.332;2023-05-29T08:31:47;94480.06;;;22.52;60.23
23176;BME280;19910;42.652;23.332;2023-05-29T08:34:14;94483.44;;;23.12;58.23
23176;BME280;19910;42.652;23.332;2023-05-29T08:36:42;94478.69;;;23.80;56.91
23176;BME280;19910;42.652;23.332;2023-05-29T08:39:10;94474.81;;;24.04;55.22
23176;BME280;19910;42.652;23.332;2023-05-29T08:41:44;94474.47;;;24.29;54.88
23176;BME280;19910;42.652;23.332;2023-05-29T08:44:14;94478.41;;;24.55;53.92
23176;BME280;19910;42.652;23.332;2023-05-29T08:46:40;94473.06;;;24.18;54.26
23176;BME280;19910;42.652;23.332;2023-05-29T08:49:12;94471.91;;;23.58;55.18
23176;BME280;19910;42.652;23.332;2023-05-29T08:51:46;94464.91;;;23.46;54.83
23176;BME280;19910;42.652;23.332;2023-05-29T08:54:16;94461.19;;;23.90;54.32
23176;BME280;19910;42.652;23.332;2023-05-29T08:56:43;94459.75;;;23.48;53.66
23176;BME280;19910;42.652;23.332;2023-05-29T08:59:11;94462.44;;;23.21;55.37
23176;BME280;19910;42.652;23.332;2023-05-29T09:01:38;94457.78;;;22.74;55.44
23176;BME280;19910;42.652;23.332;2023-05-29T09:04:05;94453.88;;;23.43;54.71
23176;BME280;19910;42.652;23.332;2023-05-29T09:06:33;94451.22;;;23.66;55.02
23176;BME280;19910;42.652;23.332;2023-05-29T09:09:02;94443.69;;;23.97;55.70
23176;BME280;19910;42.652;23.332;2023-05-29T09:11:29;94447.25;;;24.24;53.61
23176;BME280;19910;42.652;23.332;2023-05-29T09:13:56;94453.38;;;24.08;53.20
23176;BME280;19910;42.652;23.332;2023-05-29T09:16:25;94460.88;;;23.54;52.26
23176;BME280;19910;42.652;23.332;2023-05-29T09:18:51;94438.84;;;24.31;49.74
23176;BME280;19910;42.652;23.332;2023-05-29T09:21:26;94439.63;;;24.32;50.85
23176;BME280;19910;42.652;23.332;2023-05-29T09:23:54;94439.97;;;23.80;51.65
23176;BME280;19910;42.652;23.332;2023-05-29T09:26:22;94436.53;;;22.26;53.59
23176;BME280;19910;42.652;23.332;2023-05-29T09:28:49;94433.38;;;22.68;53.83
23176;BME280;19910;42.652;23.332;2023-05-29T09:31:16;94434.44;;;23.50;52.28
23176;BME280;19910;42.652;23.332;2023-05-29T09:33:48;94423.91;;;24.25;50.86
23176;BME280;19910;42.652;23.332;2023-05-29T09:36:24;94423.72;;;24.36;48.03
23176;BME280;19910;42.652;23.332;2023-05-29T09:38:51;94417.50;;;24.98;48.39
23176;BME280;19910;42.652;23.332;2023-05-29T09:41:23;94414.28;;;24.06;49.31
23176;BME280;19910;42.652;23.332;2023-05-29T09:43:50;94422.81;;;23.31;52.06
23176;BME280;19910;42.652;23.332;2023-05-29T09:46:19;94413.03;;;22.48;53.25
23176;BME280;19910;42.652;23.332;2023-05-29T09:48:46;94422.25;;;21.79;55.25
23176;BME280;19910;42.652;23.332;2023-05-29T09:51:20;94419.38;;;21.31;57.30
23176;BME280;19910;42.652;23.332;2023-05-29T09:53:47;94422.41;;;21.51;57.32
23176;BME280;19910;42.652;23.332;2023-05-29T09:56:16;94416.59;;;21.35;57.66
23176;BME280;19910;42.652;23.332;2023-05-29T09:58:44;94414.75;;;20.96;58.45
23176;BME280;19910;42.652;23.332;2023-05-29T10:01:12;94415.16;;;20.91;58.15
23176;BME280;19910;42.652;23.332;2023-05-29T10:03:41;94408.28;;;21.42;56.75
23176;BME280;19910;42.652;23.332;2023-05-29T10:06:10;94403.94;;;22.07;55.25
23176;BME280;19910;42.652;23.332;2023-05-29T10:08:42;94415.13;;;21.85;56.09
23176;BME280;19910;42.652;23.332;2023-05-29T10:11:13;94413.97;;;21.79;55.05
23176;BME280;19910;42.652;23.332;2023-05-29T10:13:43;94404.34;;;22.53;54.04
23176;BME280;19910;42.652;23.332;2023-05-29T10:16:14;94399.50;;;23.32;53.56
23176;BME280;19910;42.652;23.332;2023-05-29T10:18:43;94396.22;;;24.49;51.31
23176;BME280;19910;42.652;23.332;2023-05-29T10:21:12;94400.41;;;23.83;51.15
23176;BME280;19910;42.652;23.332;2023-05-29T10:23:40;94401.47;;;22.60;55.55
23176;BME280;19910;42.652;23.332;2023-05-29T10:26:12;94411.00;;;22.11;55.22
23176;BME280;19910;42.652;23.332;2023-05-29T10:28:46;94397.38;;;22.38;54.79
23176;BME280;19910;42.652;23.332;2023-05-29T10:31:18;94400.03;;;22.90;52.92
23176;BME280;19910;42.652;23.332;2023-05-29T10:33:57;94396.81;;;22.95;51.60
23176;BME280;19910;42.652;23.332;2023-05-29T10:36:32;94395.31;;;23.51;51.48
23176;BME280;19910;42.652;23.332;2023-05-29T10:39:03;94388.59;;;24.06;50.75
23176;BME280;19910;42.652;23.332;2023-05-29T10:41:31;94382.41;;;24.22;48.92
23176;BME280;19910;42.652;23.332;2023-05-29T10:44:01;94385.06;;;24.52;48.95
23176;BME280;19910;42.652;23.332;2023-05-29T10:47:04;94381.88;;;23.53;49.58
23176;BME280;19910;42.652;23.332;2023-05-29T10:49:31;94386.19;;;22.52;52.08
23176;BME280;19910;42.652;23.332;2023-05-29T10:51:58;94382.94;;;22.20;52.62
23176;BME280;19910;42.652;23.332;2023-05-29T10:54:26;94380.06;;;22.30;53.01
23176;BME280;19910;42.652;23.332;2023-05-29T10:56:56;94391.69;;;21.52;53.05
23176;BME280;19910;42.652;23.332;2023-05-29T10:59:25;94381.59;;;21.32;55.35
23176;BME280;19910;42.652;23.332;2023-05-29T11:01:53;94387.69;;;21.60;56.92
23176;BME280;19910;42.652;23.332;2023-05-29T11:04:29;94389.16;;;21.79;59.58
23176;BME280;19910;42.652;23.332;2023-05-29T11:06:58;94376.25;;;21.62;62.25
23176;BME280;19910;42.652;23.332;2023-05-29T11:09:30;94375.22;;;21.45;63.97
23176;BME280;19910;42.652;23.332;2023-05-29T11:12:15;94377.44;;;21.61;65.19
23176;BME280;19910;42.652;23.332;2023-05-29T11:14:56;94372.84;;;22.03;63.93
23176;BME280;19910;42.652;23.332;2023-05-29T11:17:43;94368.47;;;22.87;61.26
23176;BME280;19910;42.652;23.332;2023-05-29T11:20:35;94354.25;;;24.03;57.18
23176;BME280;19910;42.652;23.332;2023-05-29T11:23:04;94345.25;;;24.66;54.12
23176;BME280;19910;42.652;23.332;2023-05-29T11:25:35;94347.06;;;24.96;54.14
23176;BME280;19910;42.652;23.332;2023-05-29T11:28:03;94342.41;;;25.29;52.97
23176;BME280;19910;42.652;23.332;2023-05-29T11:30:42;94348.00;;;25.65;54.80
23176;BME280;19910;42.652;23.332;2023-05-29T11:33:18;94351.78;;;25.55;52.60
23176;BME280;19910;42.652;23.332;2023-05-29T11:35:49;94347.88;;;25.32;53.32
23176;BME280;19910;42.652;23.332;2023-05-29T11:38:18;94345.06;;;25.16;53.53
23176;BME280;19910;42.652;23.332;2023-05-29T11:40:45;94341.19;;;25.13;53.34
23176;BME280;19910;42.652;23.332;2023-05-29T11:43:12;94340.34;;;25.33;53.15
23176;BME280;19910;42.652;23.332;2023-05-29T11:45:39;94337.31;;;24.68;52.14
23176;BME280;19910;42.652;23.332;2023-05-29T11:48:07;94337.81;;;24.16;51.80
23176;BME280;19910;42.652;23.332;2023-05-29T11:50:36;94330.66;;;23.95;52.08
23176;BME280;19910;42.652;23.332;2023-05-29T11:53:02;94340.97;;;23.68;52.55
23176;BME280;19910;42.652;23.332;2023-05-29T11:55:32;94335.34;;;23.75;54.68
23176;BME280;19910;42.652;23.332;2023-05-29T11:58:00;94348.06;;;23.38;53.75
23176;BME280;19910;42.652;23.332;2023-05-29T12:00:30;94352.69;;;22.88;60.16
23176;BME280;19910;42.652;23.332;2023-05-29T12:02:59;94370.06;;;20.28;70.96
23176;BME280;19910;42.652;23.332;2023-05-29T12:05:30;94380.09;;;18.89;76.49
23176;BME280;19910;42.652;23.332;2023-05-29T12:07:58;94379.09;;;18.50;81.81
23176;BME280;19910;42.652;23.332;2023-05-29T12:10:26;94374.97;;;18.15;87.33
23176;BME280;19910;42.652;23.332;2023-05-29T12:12:54;94365.00;;;17.89;89.15
23176;BME280;19910;42.652;23.332;2023-05-29T12:15:21;94378.97;;;17.73;92.42
23176;BME280;19910;42.652;23.332;2023-05-29T12:17:49;94373.84;;;17.68;89.83
23176;BME280;19910;42.652;23.332;2023-05-29T12:20:17;94374.84;;;17.53;90.73
23176;BME280;19910;42.652;23.332;2023-05-29T12:22:46;94390.06;;;17.47;88.67
23176;BME280;19910;42.652;23.332;2023-05-29T12:25:14;94384.72;;;17.61;88.69
23176;BME280;19910;42.652;23.332;2023-05-29T12:27:42;94382.06;;;17.68;86.35
23176;BME280;19910;42.652;23.332;2023-05-29T12:30:12;94395.00;;;17.71;88.58
23176;BME280;19910;42.652;23.332;2023-05-29T12:32:41;94374.78;;;17.87;88.27
23176;BME280;19910;42.652;23.332;2023-05-29T12:35:17;94392.13;;;18.05;90.01
23176;BME280;19910;42.652;23.332;2023-05-29T12:37:47;94393.00;;;18.16;89.41
23176;BME280;19910;42.652;23.332;2023-05-29T12:40:15;94410.94;;;18.06;85.39
23176;BME280;19910;42.652;23.332;2023-05-29T12:42:43;94417.03;;;17.86;86.90
23176;BME280;19910;42.652;23.332;2023-05-29T12:45:10;94427.25;;;17.48;88.44
23176;BME280;19910;42.652;23.332;2023-05-29T12:47:37;94434.81;;;16.91;90.72
23176;BME280;19910;42.652;23.332;2023-05-29T12:50:19;94418.28;;;16.81;94.85
23176;BME280;19910;42.652;23.332;2023-05-29T12:52:53;94409.25;;;17.14;100.00